Etusivu
METAR-TAF:

METAR-TAF

Lentoasemat :

Stampede Pass, Washington, Yhdysvallat

Leveyspiiri: 47-16-36N, Pituuspiiri: 121-20-14W, korkeus merenpinnasta: 1207 m

Tämänhetkinen sää

Tämä raportti tehtiin 1 tunti ja 9 minuuttia sitten, kello 10.56 UTC
Tuuli 3 kn koillisesta
Lämpötila 13°C
Kosteus 67%
Ilmanpaine 1027 hPa
Näkyvyys: 16.1 km
Hajonneita pilviä 10000 ft:n korkeudessa

METAR: KSMP 011056Z AUTO 04003KT 10SM BKN100 13/07 A3033 RMK AO2 SLP248 T01280072

Aika: 05:05 (12:05 UTC)


TAF: puuttuu

Säähavainnot ja -ennusteet yli 4000 lentoasemalta (METAR- ja TAF-raportit).

Käytössä olevat sääasemat on merkitty karttaan keltaisilla ja punaisilla pisteillä.

Aseta hiiri pisteen päälle nähdäksesi sääaseman nimen.

Klikkaa sitten nähdäksesi säähavainnot ja -ennusteet.

Kartan vaihtaminen: klikkaa mustalla rastilla varustettuja vihreitä pisteitä, niin voit zoomata sisään; viivalla varustettua vihreää pistettä, niin voit zoomata ulos tai vihreitä nuolia, niin pääset viereisille kartoille.


METAR-TAF: